This is the latest recevied weather packets stored in our database for station/object VK5GR-12. If no packets are shown the sender has not sent any weather packets the latest 10 day(s).
| Time | Temp. | Humidity | Pressure | Rain* | Wind** | Luminosity | Snow |
|---|---|---|---|---|---|---|---|
| 1788470438 | 12.78° C | 82% | 1016.1 hPa | 0 mm | - | 11 W/m² | - |
| 1788469536 | 12.78° C | 82% | 1016.2 hPa | 0 mm | - | 1 W/m² | - |
| 1788468653 | 12.78° C | 80% | 1016.3 hPa | 0 mm | - | 0 W/m² | - |
| 1788467730 | 13.33° C | 79% | 1016.6 hPa | 0 mm | - | 0 W/m² | - |
| 1788466827 | 13.33° C | 79% | 1016.8 hPa | 0 mm | - | 0 W/m² | - |
| 1788465921 | 13.33° C | 79% | 1017.1 hPa | 0 mm | - | 0 W/m² | - |
| 1788465020 | 13.33° C | 81% | 1016.9 hPa | 0 mm | - | 0 W/m² | - |
| 1788464118 | 12.78° C | 83% | 1017.4 hPa | 0 mm | - | 0 W/m² | - |
| 1788463216 | 12.22° C | 88% | 1017.6 hPa | 0 mm | - | 0 W/m² | - |
| 1788462312 | 11.67° C | 88% | 1017.6 hPa | 0 mm | - | 0 W/m² | - |
| 1788461409 | 11.67° C | 88% | 1016.9 hPa | 0 mm | - | 0 W/m² | - |
| 1788460505 | 11.67° C | 88% | 1017.3 hPa | 0 mm | - | 0 W/m² | - |
| 1788459600 | 11.11° C | 89% | 1017.5 hPa | 0 mm | - | 0 W/m² | - |
| 1788458694 | 11.11° C | 88% | 1018.2 hPa | 0 mm | - | 0 W/m² | - |
| 1788457793 | 11.67° C | 87% | 1018.2 hPa | 0 mm | - | 0 W/m² | - |
| 1788456889 | 11.67° C | 87% | 1018.1 hPa | 0 mm | - | 0 W/m² | - |
| 1788455987 | 12.22° C | 86% | 1018.9 hPa | 0 mm | - | 0 W/m² | - |
| 1788455082 | 12.22° C | 86% | 1018.9 hPa | 0 mm | - | 0 W/m² | - |
| 1788454182 | 12.22° C | 85% | 1018.9 hPa | 0 mm | - | 0 W/m² | - |
| 1788453279 | 12.22° C | 85% | 1019.4 hPa | 0 mm | - | 0 W/m² | - |
| 1788452378 | 12.22° C | 84% | 1019.2 hPa | 0 mm | - | 0 W/m² | - |
| 1788451474 | 12.22° C | 83% | 1019 hPa | 0 mm | - | 0 W/m² | - |
| 1788450569 | 12.22° C | 82% | 1019.2 hPa | 0 mm | - | 0 W/m² | - |
| 1788449668 | 12.22° C | 83% | 1019.4 hPa | 0 mm | - | 0 W/m² | - |
| 1788448766 | 12.22° C | 83% | 1019.7 hPa | 0 mm | - | 0 W/m² | - |
* Rain latest hour (hover to see other rain measurements)
** Current wind speed in m/s (hover to see current wind gust speed)